PTFLB SSSS-SBFL
Flight info
| Callsign | PTFLB |
|---|---|
| Flight time | N/A |
| Altitude | 6000 |
| Route | GESDA DCT DIMOG |
| Aircraft | DA62/L-SDFGRY/C |
Departure
| Time | 2026-04-17 18:53 |
|---|---|
| Airport | São Francisco do Sul Airport (SSSS) |
Arrival
| Time | N/A |
|---|---|
| Airport | Hercílio Luz International Airport (SBFL) |
| Time | Latitude | Longitude | Altitude | Speed | Heading |
|---|---|---|---|---|---|
| 2026-04-17 18:48 | -26.21882 | -48.56712 | 50 ft | 0 kts | 254° |
| 2026-04-17 18:51 | -26.21884 | -48.56719 | 50 ft | 2 kts | 251° |
| 2026-04-17 18:51 | -26.21897 | -48.56735 | 50 ft | 7 kts | 224° |
| 2026-04-17 18:52 | -26.21989 | -48.56723 | 50 ft | 21 kts | 161° |
| 2026-04-17 18:52 | -26.22151 | -48.56669 | 50 ft | 23 kts | 161° |
| 2026-04-17 18:52 | -26.22195 | -48.56663 | 50 ft | 0 kts | 341° |
| 2026-04-17 18:52 | -26.22057 | -48.56706 | 50 ft | 53 kts | 343° |
| 2026-04-17 18:53 | -26.21585 | -48.56897 | 200 ft | 74 kts | 343° |
| 2026-04-17 18:53 | -26.21097 | -48.57122 | 435 ft | 77 kts | 341° |
| 2026-04-17 18:53 | -26.20583 | -48.57340 | 627 ft | 81 kts | 345° |
| 2026-04-17 18:53 | -26.20099 | -48.57792 | 784 ft | 100 kts | 296° |
| 2026-04-17 18:54 | -26.20124 | -48.58560 | 1061 ft | 104 kts | 244° |
| 2026-04-17 18:54 | -26.20634 | -48.59129 | 1332 ft | 106 kts | 206° |
| 2026-04-17 18:54 | -26.21350 | -48.59238 | 1616 ft | 105 kts | 169° |
| 2026-04-17 18:54 | -26.22093 | -48.59091 | 1906 ft | 107 kts | 171° |
| 2026-04-17 18:55 | -26.22852 | -48.58962 | 2178 ft | 109 kts | 172° |
| 2026-04-17 18:55 | -26.23623 | -48.58822 | 2396 ft | 115 kts | 172° |
| 2026-04-17 18:55 | -26.24427 | -48.58641 | 2627 ft | 120 kts | 168° |
| 2026-04-17 18:55 | -26.25270 | -48.58431 | 2863 ft | 123 kts | 169° |
| 2026-04-17 18:56 | -26.26101 | -48.58216 | 3086 ft | 125 kts | 168° |
| 2026-04-17 18:56 | -26.26965 | -48.57989 | 3308 ft | 127 kts | 168° |
| 2026-04-17 18:56 | -26.27836 | -48.58026 | 3534 ft | 124 kts | 208° |
| 2026-04-17 18:56 | -26.28607 | -48.58482 | 3774 ft | 125 kts | 210° |
| 2026-04-17 18:57 | -26.29404 | -48.58891 | 4010 ft | 126 kts | 207° |
| 2026-04-17 18:57 | -26.30231 | -48.59253 | 4236 ft | 127 kts | 205° |
| 2026-04-17 18:57 | -26.31081 | -48.59591 | 4472 ft | 128 kts | 204° |
| 2026-04-17 18:57 | -26.31930 | -48.59909 | 4698 ft | 128 kts | 204° |
| 2026-04-17 18:58 | -26.32790 | -48.60222 | 4933 ft | 128 kts | 204° |
| 2026-04-17 18:58 | -26.33648 | -48.60532 | 5170 ft | 128 kts | 204° |
| 2026-04-17 18:58 | -26.34497 | -48.60835 | 5404 ft | 128 kts | 205° |
| 2026-04-17 18:58 | -26.35356 | -48.61141 | 5633 ft | 128 kts | 205° |
| 2026-04-17 18:59 | -26.36214 | -48.61448 | 5859 ft | 128 kts | 205° |
| 2026-04-17 18:59 | -26.37114 | -48.61773 | 5945 ft | 140 kts | 204° |
| 2026-04-17 18:59 | -26.38059 | -48.62109 | 6021 ft | 147 kts | 205° |
| 2026-04-17 18:59 | -26.39077 | -48.62474 | 6032 ft | 156 kts | 204° |
| 2026-04-17 19:00 | -26.40132 | -48.62849 | 6032 ft | 160 kts | 204° |
| 2026-04-17 19:00 | -26.41203 | -48.63227 | 6029 ft | 159 kts | 204° |
| 2026-04-17 19:00 | -26.42253 | -48.63602 | 6029 ft | 158 kts | 204° |
| 2026-04-17 19:00 | -26.43304 | -48.63977 | 6024 ft | 157 kts | 204° |
| 2026-04-17 19:01 | -26.44352 | -48.64348 | 6033 ft | 156 kts | 204° |
| 2026-04-17 19:01 | -26.45392 | -48.64720 | 6039 ft | 157 kts | 204° |
| 2026-04-17 19:01 | -26.46429 | -48.65090 | 6040 ft | 157 kts | 204° |
| 2026-04-17 19:01 | -26.47494 | -48.65467 | 6037 ft | 158 kts | 204° |
| 2026-04-17 19:02 | -26.48534 | -48.65839 | 6035 ft | 158 kts | 204° |
| 2026-04-17 19:02 | -26.49588 | -48.66213 | 6034 ft | 158 kts | 204° |
| 2026-04-17 19:02 | -26.50641 | -48.66589 | 6039 ft | 158 kts | 204° |
| 2026-04-17 19:02 | -26.51700 | -48.66968 | 6040 ft | 159 kts | 204° |
| 2026-04-17 19:03 | -26.52756 | -48.67344 | 6030 ft | 159 kts | 204° |
| 2026-04-17 19:03 | -26.53808 | -48.67720 | 6037 ft | 158 kts | 204° |
| 2026-04-17 19:03 | -26.54865 | -48.68097 | 6038 ft | 159 kts | 204° |
| 2026-04-17 19:03 | -26.55917 | -48.68475 | 6040 ft | 158 kts | 204° |
| 2026-04-17 19:04 | -26.56974 | -48.68851 | 6036 ft | 158 kts | 204° |
| 2026-04-17 19:04 | -26.58025 | -48.69227 | 6044 ft | 157 kts | 204° |
| 2026-04-17 19:04 | -26.59072 | -48.69601 | 6045 ft | 158 kts | 204° |
| 2026-04-17 19:04 | -26.60138 | -48.69981 | 6035 ft | 158 kts | 203° |
| 2026-04-17 19:05 | -26.61189 | -48.70356 | 6031 ft | 158 kts | 203° |